Ana Sayfa
METAR-TAF:

METAR-TAF

Havaalanları :

Kalgoorlie, Avustralya

Enlem: 30-47S, Boylam: 121-27E, yükseklik: 367 m

Güncel hava durumu gözlemi

Rapor saat 19:30 UTC de 18 dakika önce yapıldı.
Rüzgar güneydoğudan 11 kt
Sıcaklık 19°C
Nem 49%
Basınç 1018 hPa
Görüş mesafesi 10 km veya daha fazla

METAR: YPKG 101930Z AUTO 13011KT 9999 // NCD 19/08 Q1018 RF00.0/000.0

Saat: 03:48 (19:48 UTC)

Tahmin

Rapor saat 17:07 UTC de 2 saat ve 41 dakika önce yapıldı.
Ayın 10'si saat 18 UTC'den ayın 11'si saat 18 UTC'ye kadar geçerli Tahmin
Rüzgar doğu/güneydoğudan 12 kt
Görüş mesafesi 10 km veya daha fazla
1500 m altında bulut yok ve kümülonimbus yok
Olasılık 30% :
Geçici
ayın 10'si saat 18 UTC'den ayın 11'si saat 08 UTC'ye kadar
Rüzgar değişken yönden 20 kt ve 35 kt'a kadar ani rüzgarlar
Görüş mesafesi: 6000 m
12000 ft yükseklikte parçalı bulutlu, Kümülonimbus.
gök gürültülü fırtına, yağmur

TAF: YPKG 101707Z 1018/1118 11012KT CAVOK PROB30 TEMPO 1018/1108 VRB20G35KT 6000 TSRA SCT120CB

4.000'den fazla havaalanı için hava durumu gözlemleri ve tahminleri (METAR ve TAF raporları).

Kullanılabilir istasyonlar harita üzerinde sarı ve kırmızı noktalarla gösterilir.

İstasyonun adını görmek için fareyi noktanın üzerinde gezdirin.

Sonrasında hava gözlem ve tahminlerini görmek için tıklayın.

Haritayı değiştirmek için: yaklaştırmak için siyah artı işaretli yeşil düğmeye ve uzaklaştırmak için de eksi işaretli düğmeye hızla tıklayın; bitişik haritalar için yeşil okları kullanın.


METAR-TAF: